sensor_id;sensor_type;location;lat;lon;timestamp;pressure;altitude;pressure_sealevel;temperature;humidity
55171;BME280;41060;47.510;8.680;2023-03-04T00:02:11;97513.50;;;6.86;48.71
55171;BME280;41060;47.510;8.680;2023-03-04T00:04:37;97519.00;;;6.67;49.15
55171;BME280;41060;47.510;8.680;2023-03-04T00:07:05;97478.81;;;6.50;48.91
55171;BME280;41060;47.510;8.680;2023-03-04T00:09:32;97520.91;;;6.50;49.42
55171;BME280;41060;47.510;8.680;2023-03-04T00:11:59;97518.47;;;6.47;49.32
55171;BME280;41060;47.510;8.680;2023-03-04T00:14:25;97519.97;;;6.51;49.19
55171;BME280;41060;47.510;8.680;2023-03-04T00:16:52;97511.31;;;6.49;49.37
55171;BME280;41060;47.510;8.680;2023-03-04T00:19:19;97522.59;;;6.51;49.02
55171;BME280;41060;47.510;8.680;2023-03-04T00:21:45;97529.63;;;6.50;48.98
55171;BME280;41060;47.510;8.680;2023-03-04T00:24:14;97493.59;;;6.36;48.94
55171;BME280;41060;47.510;8.680;2023-03-04T00:26:40;97529.47;;;6.53;48.58
55171;BME280;41060;47.510;8.680;2023-03-04T00:29:07;97530.41;;;6.52;48.82
55171;BME280;41060;47.510;8.680;2023-03-04T00:31:34;97531.25;;;6.53;48.78
55171;BME280;41060;47.510;8.680;2023-03-04T00:34:00;97538.09;;;6.55;48.54
55171;BME280;41060;47.510;8.680;2023-03-04T00:36:27;97533.13;;;6.51;48.60
55171;BME280;41060;47.510;8.680;2023-03-04T00:38:54;97514.88;;;6.32;48.56
55171;BME280;41060;47.510;8.680;2023-03-04T00:41:22;97531.28;;;6.37;48.58
55171;BME280;41060;47.510;8.680;2023-03-04T00:43:49;97505.31;;;6.15;48.47
55171;BME280;41060;47.510;8.680;2023-03-04T00:46:16;97507.88;;;6.17;48.38
55171;BME280;41060;47.510;8.680;2023-03-04T00:48:43;97532.97;;;6.22;48.56
55171;BME280;41060;47.510;8.680;2023-03-04T00:51:09;97527.78;;;6.21;48.85
55171;BME280;41060;47.510;8.680;2023-03-04T00:53:36;97530.34;;;6.22;49.08
55171;BME280;41060;47.510;8.680;2023-03-04T00:56:03;97506.94;;;6.02;49.04
55171;BME280;41060;47.510;8.680;2023-03-04T00:58:31;97528.22;;;6.13;48.99
55171;BME280;41060;47.510;8.680;2023-03-04T01:00:58;97526.50;;;6.12;48.91
55171;BME280;41060;47.510;8.680;2023-03-04T01:03:25;97479.88;;;5.84;48.86
55171;BME280;41060;47.510;8.680;2023-03-04T01:05:55;97518.03;;;6.07;48.91
55171;BME280;41060;47.510;8.680;2023-03-04T01:08:22;97510.56;;;5.99;48.52
55171;BME280;41060;47.510;8.680;2023-03-04T01:10:49;97522.78;;;6.00;48.54
55171;BME280;41060;47.510;8.680;2023-03-04T01:13:15;97515.66;;;6.02;48.64
55171;BME280;41060;47.510;8.680;2023-03-04T01:15:44;97517.34;;;6.03;49.08
55171;BME280;41060;47.510;8.680;2023-03-04T01:18:11;97522.59;;;6.03;49.29
55171;BME280;41060;47.510;8.680;2023-03-04T01:20:37;97509.66;;;6.00;49.52
55171;BME280;41060;47.510;8.680;2023-03-04T01:23:04;97507.94;;;5.99;49.16
55171;BME280;41060;47.510;8.680;2023-03-04T01:25:31;97491.25;;;5.85;49.38
55171;BME280;41060;47.510;8.680;2023-03-04T01:27:58;97502.84;;;5.96;49.28
55171;BME280;41060;47.510;8.680;2023-03-04T01:30:25;97509.16;;;5.94;49.44
55171;BME280;41060;47.510;8.680;2023-03-04T01:32:53;97509.28;;;5.91;49.24
55171;BME280;41060;47.510;8.680;2023-03-04T01:35:20;97428.34;;;5.33;48.96
55171;BME280;41060;47.510;8.680;2023-03-04T01:37:47;97485.00;;;5.70;49.39
55171;BME280;41060;47.510;8.680;2023-03-04T01:40:13;97507.09;;;5.83;48.96
55171;BME280;41060;47.510;8.680;2023-03-04T01:42:40;97509.94;;;5.79;49.09
55171;BME280;41060;47.510;8.680;2023-03-04T01:45:11;97369.31;;;4.91;49.06
55171;BME280;41060;47.510;8.680;2023-03-04T01:47:39;97462.53;;;5.49;49.02
55171;BME280;41060;47.510;8.680;2023-03-04T01:50:16;97503.13;;;5.75;49.42
55171;BME280;41060;47.510;8.680;2023-03-04T01:52:44;97478.81;;;5.55;49.23
55171;BME280;41060;47.510;8.680;2023-03-04T01:55:15;97482.94;;;5.59;49.42
55171;BME280;41060;47.510;8.680;2023-03-04T01:57:42;97502.03;;;5.63;49.42
55171;BME280;41060;47.510;8.680;2023-03-04T02:00:23;97449.44;;;5.32;48.93
55171;BME280;41060;47.510;8.680;2023-03-04T02:02:53;97499.47;;;5.61;49.38
55171;BME280;41060;47.510;8.680;2023-03-04T02:05:22;97410.06;;;4.99;49.15
55171;BME280;41060;47.510;8.680;2023-03-04T02:07:50;97498.03;;;5.56;49.47
55171;BME280;41060;47.510;8.680;2023-03-04T02:10:18;97498.38;;;5.50;49.33
55171;BME280;41060;47.510;8.680;2023-03-04T02:12:45;97476.22;;;5.38;49.49
55171;BME280;41060;47.510;8.680;2023-03-04T02:15:12;97482.84;;;5.45;49.36
55171;BME280;41060;47.510;8.680;2023-03-04T02:17:42;97475.63;;;5.33;49.72
55171;BME280;41060;47.510;8.680;2023-03-04T02:20:16;97494.28;;;5.44;49.73
55171;BME280;41060;47.510;8.680;2023-03-04T02:22:53;97486.66;;;5.40;49.73
55171;BME280;41060;47.510;8.680;2023-03-04T02:25:27;97466.53;;;5.23;49.24
55171;BME280;41060;47.510;8.680;2023-03-04T02:28:00;97487.91;;;5.33;49.30
55171;BME280;41060;47.510;8.680;2023-03-04T02:30:27;97483.66;;;5.30;49.38
55171;BME280;41060;47.510;8.680;2023-03-04T02:32:54;97425.81;;;4.99;49.45
55171;BME280;41060;47.510;8.680;2023-03-04T02:35:26;97478.72;;;5.24;49.94
55171;BME280;41060;47.510;8.680;2023-03-04T02:37:53;97425.53;;;4.87;49.58
55171;BME280;41060;47.510;8.680;2023-03-04T02:40:22;97480.56;;;5.22;49.90
55171;BME280;41060;47.510;8.680;2023-03-04T02:42:52;97479.91;;;5.18;49.78
55171;BME280;41060;47.510;8.680;2023-03-04T02:45:43;97452.16;;;4.97;49.76
55171;BME280;41060;47.510;8.680;2023-03-04T02:48:11;97287.63;;;3.99;49.64
55171;BME280;41060;47.510;8.680;2023-03-04T02:50:41;97478.44;;;5.13;49.96
55171;BME280;41060;47.510;8.680;2023-03-04T02:53:09;97426.91;;;4.77;49.45
55171;BME280;41060;47.510;8.680;2023-03-04T02:55:36;97482.84;;;5.12;49.92
55171;BME280;41060;47.510;8.680;2023-03-04T02:58:03;97485.53;;;5.11;49.54
55171;BME280;41060;47.510;8.680;2023-03-04T03:00:30;97483.13;;;5.06;49.99
55171;BME280;41060;47.510;8.680;2023-03-04T03:02:58;97483.47;;;5.00;50.15
55171;BME280;41060;47.510;8.680;2023-03-04T03:05:26;97480.00;;;5.00;49.73
55171;BME280;41060;47.510;8.680;2023-03-04T03:07:55;97432.03;;;4.63;49.61
55171;BME280;41060;47.510;8.680;2023-03-04T03:10:22;97431.63;;;4.71;49.32
55171;BME280;41060;47.510;8.680;2023-03-04T03:12:50;97485.41;;;4.97;49.63
55171;BME280;41060;47.510;8.680;2023-03-04T03:15:17;97484.63;;;4.95;50.00
55171;BME280;41060;47.510;8.680;2023-03-04T03:17:45;97488.25;;;4.92;49.31
55171;BME280;41060;47.510;8.680;2023-03-04T03:20:13;97480.47;;;4.90;50.35
55171;BME280;41060;47.510;8.680;2023-03-04T03:22:41;97476.22;;;4.88;50.29
55171;BME280;41060;47.510;8.680;2023-03-04T03:25:09;97456.94;;;4.72;49.93
55171;BME280;41060;47.510;8.680;2023-03-04T03:27:36;97466.72;;;4.85;49.69
55171;BME280;41060;47.510;8.680;2023-03-04T03:30:04;97472.91;;;4.84;49.58
55171;BME280;41060;47.510;8.680;2023-03-04T03:32:31;97475.69;;;4.81;49.54
55171;BME280;41060;47.510;8.680;2023-03-04T03:34:58;97470.66;;;4.77;50.02
55171;BME280;41060;47.510;8.680;2023-03-04T03:37:26;97418.94;;;4.46;49.92
55171;BME280;41060;47.510;8.680;2023-03-04T03:39:53;97468.75;;;4.80;49.90
55171;BME280;41060;47.510;8.680;2023-03-04T03:42:20;97470.59;;;4.78;50.32
55171;BME280;41060;47.510;8.680;2023-03-04T03:44:46;97475.16;;;4.75;49.72
55171;BME280;41060;47.510;8.680;2023-03-04T03:47:15;97462.56;;;4.64;50.33
55171;BME280;41060;47.510;8.680;2023-03-04T03:49:41;97386.22;;;4.19;50.10
55171;BME280;41060;47.510;8.680;2023-03-04T03:52:11;97451.69;;;4.55;50.34
55171;BME280;41060;47.510;8.680;2023-03-04T03:54:40;97447.59;;;4.49;50.33
55171;BME280;41060;47.510;8.680;2023-03-04T03:57:07;97299.47;;;3.54;50.02
55171;BME280;41060;47.510;8.680;2023-03-04T03:59:34;97476.69;;;4.62;49.70
55171;BME280;41060;47.510;8.680;2023-03-04T04:02:01;97381.81;;;4.02;49.78
55171;BME280;41060;47.510;8.680;2023-03-04T04:04:28;97468.91;;;4.60;49.90
55171;BME280;41060;47.510;8.680;2023-03-04T04:06:54;97470.63;;;4.61;50.15
55171;BME280;41060;47.510;8.680;2023-03-04T04:09:21;97479.41;;;4.60;50.49
55171;BME280;41060;47.510;8.680;2023-03-04T04:11:51;97479.47;;;4.59;50.40
55171;BME280;41060;47.510;8.680;2023-03-04T04:14:18;97477.22;;;4.51;50.40
55171;BME280;41060;47.510;8.680;2023-03-04T04:16:45;97449.91;;;4.21;50.15
55171;BME280;41060;47.510;8.680;2023-03-04T04:19:16;97476.81;;;4.41;50.56
55171;BME280;41060;47.510;8.680;2023-03-04T04:21:43;97480.50;;;4.20;51.19
55171;BME280;41060;47.510;8.680;2023-03-04T04:24:10;97451.72;;;3.83;50.20
55171;BME280;41060;47.510;8.680;2023-03-04T04:26:36;97485.34;;;3.73;51.61
55171;BME280;41060;47.510;8.680;2023-03-04T04:29:05;97443.97;;;3.23;51.28
55171;BME280;41060;47.510;8.680;2023-03-04T04:31:32;97486.56;;;3.47;51.88
55171;BME280;41060;47.510;8.680;2023-03-04T04:33:58;97486.97;;;3.38;51.97
55171;BME280;41060;47.510;8.680;2023-03-04T04:36:25;97492.16;;;3.19;52.63
55171;BME280;41060;47.510;8.680;2023-03-04T04:38:52;97491.47;;;3.14;52.28
55171;BME280;41060;47.510;8.680;2023-03-04T04:41:21;97453.84;;;2.78;52.93
55171;BME280;41060;47.510;8.680;2023-03-04T04:43:48;97387.94;;;2.31;53.24
55171;BME280;41060;47.510;8.680;2023-03-04T04:46:17;97487.47;;;2.87;53.30
55171;BME280;41060;47.510;8.680;2023-03-04T04:48:44;97488.91;;;2.94;54.22
55171;BME280;41060;47.510;8.680;2023-03-04T04:51:11;97495.00;;;2.74;54.95
55171;BME280;41060;47.510;8.680;2023-03-04T04:53:39;97492.38;;;2.74;55.72
55171;BME280;41060;47.510;8.680;2023-03-04T04:56:10;97434.19;;;2.49;54.33
55171;BME280;41060;47.510;8.680;2023-03-04T04:58:37;97468.91;;;2.73;54.34
55171;BME280;41060;47.510;8.680;2023-03-04T05:01:04;97483.88;;;2.89;53.91
55171;BME280;41060;47.510;8.680;2023-03-04T05:03:33;97502.16;;;3.10;52.98
55171;BME280;41060;47.510;8.680;2023-03-04T05:06:01;97409.28;;;2.40;54.11
55171;BME280;41060;47.510;8.680;2023-03-04T05:08:29;97499.69;;;2.86;53.31
55171;BME280;41060;47.510;8.680;2023-03-04T05:10:55;97496.09;;;2.89;53.71
55171;BME280;41060;47.510;8.680;2023-03-04T05:13:22;97504.84;;;2.88;53.68
55171;BME280;41060;47.510;8.680;2023-03-04T05:15:50;97461.97;;;2.51;53.87
55171;BME280;41060;47.510;8.680;2023-03-04T05:18:18;97453.38;;;2.48;54.48
55171;BME280;41060;47.510;8.680;2023-03-04T05:20:50;97482.72;;;2.54;54.43
55171;BME280;41060;47.510;8.680;2023-03-04T05:23:18;97508.06;;;2.74;54.06
55171;BME280;41060;47.510;8.680;2023-03-04T05:25:45;97504.22;;;2.83;53.62
55171;BME280;41060;47.510;8.680;2023-03-04T05:28:12;97503.94;;;2.89;53.79
55171;BME280;41060;47.510;8.680;2023-03-04T05:30:40;97504.53;;;2.95;52.57
55171;BME280;41060;47.510;8.680;2023-03-04T05:33:10;97429.38;;;2.60;52.77
55171;BME280;41060;47.510;8.680;2023-03-04T05:35:39;97494.66;;;3.02;52.20
55171;BME280;41060;47.510;8.680;2023-03-04T05:38:09;97501.19;;;3.12;51.96
55171;BME280;41060;47.510;8.680;2023-03-04T05:40:36;97512.75;;;3.27;52.18
55171;BME280;41060;47.510;8.680;2023-03-04T05:43:03;97509.00;;;3.32;51.57
55171;BME280;41060;47.510;8.680;2023-03-04T05:45:30;97508.78;;;3.37;51.38
55171;BME280;41060;47.510;8.680;2023-03-04T05:47:57;97494.28;;;3.30;51.05
55171;BME280;41060;47.510;8.680;2023-03-04T05:50:24;97514.94;;;3.36;51.39
55171;BME280;41060;47.510;8.680;2023-03-04T05:52:51;97506.66;;;3.26;51.14
55171;BME280;41060;47.510;8.680;2023-03-04T05:55:19;97484.97;;;3.04;50.92
55171;BME280;41060;47.510;8.680;2023-03-04T05:57:46;97511.84;;;3.08;51.27
55171;BME280;41060;47.510;8.680;2023-03-04T06:00:14;97508.84;;;2.96;51.35
55171;BME280;41060;47.510;8.680;2023-03-04T06:02:42;97506.63;;;2.87;51.77
55171;BME280;41060;47.510;8.680;2023-03-04T06:05:13;97511.78;;;2.69;52.69
55171;BME280;41060;47.510;8.680;2023-03-04T06:07:40;97509.41;;;2.63;52.75
55171;BME280;41060;47.510;8.680;2023-03-04T06:10:09;97511.69;;;2.70;52.99
55171;BME280;41060;47.510;8.680;2023-03-04T06:12:37;97520.97;;;2.57;52.81
55171;BME280;41060;47.510;8.680;2023-03-04T06:15:08;97524.69;;;2.51;53.73
55171;BME280;41060;47.510;8.680;2023-03-04T06:17:36;97530.28;;;2.42;53.09
55171;BME280;41060;47.510;8.680;2023-03-04T06:20:03;97535.03;;;2.33;53.03
55171;BME280;41060;47.510;8.680;2023-03-04T06:22:31;97540.75;;;2.42;53.03
55171;BME280;41060;47.510;8.680;2023-03-04T06:24:59;97543.56;;;2.38;52.73
55171;BME280;41060;47.510;8.680;2023-03-04T06:27:26;97467.47;;;1.80;53.49
55171;BME280;41060;47.510;8.680;2023-03-04T06:29:54;97550.78;;;2.31;53.36
55171;BME280;41060;47.510;8.680;2023-03-04T06:32:21;97490.50;;;1.92;53.59
55171;BME280;41060;47.510;8.680;2023-03-04T06:34:47;97496.53;;;1.94;53.23
55171;BME280;41060;47.510;8.680;2023-03-04T06:37:15;97450.28;;;1.74;53.12
55171;BME280;41060;47.510;8.680;2023-03-04T06:39:41;97556.75;;;2.35;53.94
55171;BME280;41060;47.510;8.680;2023-03-04T06:42:08;97555.78;;;2.37;54.54
55171;BME280;41060;47.510;8.680;2023-03-04T06:44:35;97532.91;;;2.42;53.76
55171;BME280;41060;47.510;8.680;2023-03-04T06:47:03;97534.13;;;2.34;54.47
55171;BME280;41060;47.510;8.680;2023-03-04T06:49:29;97572.31;;;2.38;54.40
55171;BME280;41060;47.510;8.680;2023-03-04T06:51:57;97568.78;;;2.39;53.98
55171;BME280;41060;47.510;8.680;2023-03-04T06:54:23;97570.06;;;2.29;54.86
55171;BME280;41060;47.510;8.680;2023-03-04T06:56:50;97576.00;;;2.32;54.04
55171;BME280;41060;47.510;8.680;2023-03-04T06:59:17;97563.38;;;2.43;54.05
55171;BME280;41060;47.510;8.680;2023-03-04T07:01:44;97507.13;;;2.33;53.86
55171;BME280;41060;47.510;8.680;2023-03-04T07:04:12;97573.13;;;2.82;53.73
55171;BME280;41060;47.510;8.680;2023-03-04T07:06:40;97569.72;;;2.80;53.77
55171;BME280;41060;47.510;8.680;2023-03-04T07:09:06;97574.47;;;2.70;54.22
55171;BME280;41060;47.510;8.680;2023-03-04T07:11:33;97516.75;;;2.33;54.35
55171;BME280;41060;47.510;8.680;2023-03-04T07:14:00;97571.19;;;2.65;54.85
55171;BME280;41060;47.510;8.680;2023-03-04T07:16:27;97578.72;;;2.73;54.64
55171;BME280;41060;47.510;8.680;2023-03-04T07:18:53;97576.53;;;2.62;55.62
55171;BME280;41060;47.510;8.680;2023-03-04T07:21:22;97581.00;;;2.60;55.90
55171;BME280;41060;47.510;8.680;2023-03-04T07:23:48;97566.63;;;2.48;56.07
55171;BME280;41060;47.510;8.680;2023-03-04T07:26:16;97584.94;;;2.48;56.06
55171;BME280;41060;47.510;8.680;2023-03-04T07:28:43;97591.25;;;2.43;56.41
55171;BME280;41060;47.510;8.680;2023-03-04T07:31:12;97588.25;;;2.53;55.95
55171;BME280;41060;47.510;8.680;2023-03-04T07:33:45;97576.06;;;2.52;55.48
55171;BME280;41060;47.510;8.680;2023-03-04T07:36:11;97591.25;;;2.65;56.01
55171;BME280;41060;47.510;8.680;2023-03-04T07:38:43;97589.25;;;2.71;55.68
55171;BME280;41060;47.510;8.680;2023-03-04T07:41:10;97593.50;;;2.74;55.95
55171;BME280;41060;47.510;8.680;2023-03-04T07:43:37;97573.75;;;2.67;55.50
55171;BME280;41060;47.510;8.680;2023-03-04T07:46:04;97590.88;;;2.74;56.60
55171;BME280;41060;47.510;8.680;2023-03-04T07:48:31;97516.44;;;2.40;56.12
55171;BME280;41060;47.510;8.680;2023-03-04T07:51:05;97568.66;;;2.42;56.85
55171;BME280;41060;47.510;8.680;2023-03-04T07:53:33;97583.00;;;2.75;56.82
55171;BME280;41060;47.510;8.680;2023-03-04T07:56:01;97587.97;;;2.81;56.72
55171;BME280;41060;47.510;8.680;2023-03-04T07:58:28;97589.41;;;2.88;56.21
55171;BME280;41060;47.510;8.680;2023-03-04T08:00:56;97586.06;;;2.85;56.34
55171;BME280;41060;47.510;8.680;2023-03-04T08:03:22;97588.66;;;2.85;56.92
55171;BME280;41060;47.510;8.680;2023-03-04T08:05:49;97588.28;;;2.94;56.51
55171;BME280;41060;47.510;8.680;2023-03-04T08:08:16;97588.88;;;3.01;56.60
55171;BME280;41060;47.510;8.680;2023-03-04T08:10:43;97551.41;;;2.80;56.23
55171;BME280;41060;47.510;8.680;2023-03-04T08:13:11;97598.88;;;2.91;56.67
55171;BME280;41060;47.510;8.680;2023-03-04T08:15:40;97594.44;;;2.93;56.79
55171;BME280;41060;47.510;8.680;2023-03-04T08:18:07;97594.44;;;2.93;56.36
55171;BME280;41060;47.510;8.680;2023-03-04T08:20:34;97582.75;;;3.02;56.19
55171;BME280;41060;47.510;8.680;2023-03-04T08:23:01;97591.34;;;3.25;56.06
55171;BME280;41060;47.510;8.680;2023-03-04T08:25:28;97541.63;;;3.05;58.56
55171;BME280;41060;47.510;8.680;2023-03-04T08:27:54;97453.16;;;2.74;57.86
55171;BME280;41060;47.510;8.680;2023-03-04T08:30:23;97533.59;;;3.28;56.81
55171;BME280;41060;47.510;8.680;2023-03-04T08:32:49;97580.72;;;3.69;58.11
55171;BME280;41060;47.510;8.680;2023-03-04T08:35:16;97565.13;;;3.66;57.51
55171;BME280;41060;47.510;8.680;2023-03-04T08:37:43;97572.91;;;3.67;56.01
55171;BME280;41060;47.510;8.680;2023-03-04T08:40:11;97570.56;;;3.61;56.12
55171;BME280;41060;47.510;8.680;2023-03-04T08:42:38;97586.13;;;3.85;56.17
55171;BME280;41060;47.510;8.680;2023-03-04T08:45:06;97538.81;;;3.69;56.27
55171;BME280;41060;47.510;8.680;2023-03-04T08:47:34;97582.38;;;4.09;55.61
55171;BME280;41060;47.510;8.680;2023-03-04T08:50:01;97582.72;;;4.01;56.43
55171;BME280;41060;47.510;8.680;2023-03-04T08:52:28;97582.22;;;4.12;57.22
55171;BME280;41060;47.510;8.680;2023-03-04T08:54:55;97586.69;;;4.29;56.27
55171;BME280;41060;47.510;8.680;2023-03-04T08:57:22;97545.44;;;4.32;56.39
55171;BME280;41060;47.510;8.680;2023-03-04T08:59:49;97583.94;;;4.68;56.14
55171;BME280;41060;47.510;8.680;2023-03-04T09:02:16;97582.78;;;4.73;55.36
55171;BME280;41060;47.510;8.680;2023-03-04T09:04:47;97586.09;;;4.60;56.15
55171;BME280;41060;47.510;8.680;2023-03-04T09:07:14;97507.75;;;4.35;55.79
55171;BME280;41060;47.510;8.680;2023-03-04T09:09:43;97577.47;;;4.92;55.65
55171;BME280;41060;47.510;8.680;2023-03-04T09:12:09;97570.59;;;4.72;56.36
55171;BME280;41060;47.510;8.680;2023-03-04T09:14:36;97566.97;;;4.75;55.58
55171;BME280;41060;47.510;8.680;2023-03-04T09:17:04;97569.16;;;5.01;55.28
55171;BME280;41060;47.510;8.680;2023-03-04T09:19:31;97568.00;;;5.24;55.28
55171;BME280;41060;47.510;8.680;2023-03-04T09:21:59;97571.34;;;5.43;54.74
55171;BME280;41060;47.510;8.680;2023-03-04T09:24:26;97539.56;;;5.15;54.65
55171;BME280;41060;47.510;8.680;2023-03-04T09:26:53;97567.34;;;5.36;55.14
55171;BME280;41060;47.510;8.680;2023-03-04T09:29:21;97561.44;;;5.65;54.21
55171;BME280;41060;47.510;8.680;2023-03-04T09:31:49;97554.63;;;5.79;53.39
55171;BME280;41060;47.510;8.680;2023-03-04T09:34:16;97495.53;;;5.70;52.61
55171;BME280;41060;47.510;8.680;2023-03-04T09:36:43;97559.34;;;6.05;53.02
55171;BME280;41060;47.510;8.680;2023-03-04T09:39:11;97383.66;;;5.02;53.12
55171;BME280;41060;47.510;8.680;2023-03-04T09:41:39;97559.25;;;6.06;52.48
55171;BME280;41060;47.510;8.680;2023-03-04T09:44:15;97550.25;;;6.42;51.35
55171;BME280;41060;47.510;8.680;2023-03-04T09:46:45;97551.38;;;6.54;51.25
55171;BME280;41060;47.510;8.680;2023-03-04T09:49:14;97493.53;;;6.38;50.89
55171;BME280;41060;47.510;8.680;2023-03-04T09:51:50;97541.31;;;6.76;50.54
55171;BME280;41060;47.510;8.680;2023-03-04T09:54:34;97547.66;;;6.88;50.32
55171;BME280;41060;47.510;8.680;2023-03-04T09:57:16;97531.31;;;6.97;50.37
55171;BME280;41060;47.510;8.680;2023-03-04T09:59:50;97505.69;;;6.55;50.17
55171;BME280;41060;47.510;8.680;2023-03-04T10:02:31;97538.34;;;6.82;50.17
55171;BME280;41060;47.510;8.680;2023-03-04T10:05:04;97536.47;;;7.28;49.51
55171;BME280;41060;47.510;8.680;2023-03-04T10:07:35;97525.59;;;7.62;49.79
55171;BME280;41060;47.510;8.680;2023-03-04T10:10:09;97521.47;;;8.01;48.65
55171;BME280;41060;47.510;8.680;2023-03-04T10:12:41;97516.25;;;8.14;47.03
55171;BME280;41060;47.510;8.680;2023-03-04T10:15:20;97481.72;;;7.90;47.40
55171;BME280;41060;47.510;8.680;2023-03-04T10:17:50;97515.25;;;8.02;46.67
55171;BME280;41060;47.510;8.680;2023-03-04T10:20:22;97529.25;;;8.31;47.72
55171;BME280;41060;47.510;8.680;2023-03-04T10:22:51;97489.78;;;8.42;47.38
55171;BME280;41060;47.510;8.680;2023-03-04T10:25:21;97511.72;;;8.57;46.45
55171;BME280;41060;47.510;8.680;2023-03-04T10:27:51;97522.34;;;8.55;46.05
55171;BME280;41060;47.510;8.680;2023-03-04T10:30:39;97522.03;;;8.74;47.16
55171;BME280;41060;47.510;8.680;2023-03-04T10:33:14;97511.72;;;8.96;45.86
55171;BME280;41060;47.510;8.680;2023-03-04T10:35:44;97452.28;;;8.64;45.64
55171;BME280;41060;47.510;8.680;2023-03-04T10:38:12;97509.81;;;8.59;45.68
55171;BME280;41060;47.510;8.680;2023-03-04T10:40:42;97510.31;;;9.30;45.33
55171;BME280;41060;47.510;8.680;2023-03-04T10:43:14;97435.47;;;9.17;44.69
55171;BME280;41060;47.510;8.680;2023-03-04T10:45:41;97509.47;;;9.68;44.21
55171;BME280;41060;47.510;8.680;2023-03-04T10:48:18;97465.84;;;9.49;44.06
55171;BME280;41060;47.510;8.680;2023-03-04T10:50:45;97494.88;;;9.75;44.27
55171;BME280;41060;47.510;8.680;2023-03-04T10:53:24;97500.50;;;9.70;43.53
55171;BME280;41060;47.510;8.680;2023-03-04T10:55:53;97493.41;;;9.71;43.48
55171;BME280;41060;47.510;8.680;2023-03-04T10:58:20;97494.44;;;9.81;43.87
55171;BME280;41060;47.510;8.680;2023-03-04T11:00:58;97489.69;;;9.86;43.30
55171;BME280;41060;47.510;8.680;2023-03-04T11:03:29;97475.28;;;10.26;42.80
55171;BME280;41060;47.510;8.680;2023-03-04T11:06:15;97475.06;;;10.66;42.80
55171;BME280;41060;47.510;8.680;2023-03-04T11:08:43;97477.59;;;11.02;41.38
55171;BME280;41060;47.510;8.680;2023-03-04T11:11:29;97466.94;;;11.26;40.87
55171;BME280;41060;47.510;8.680;2023-03-04T11:14:01;97473.09;;;11.38;40.71
55171;BME280;41060;47.510;8.680;2023-03-04T11:16:31;97461.88;;;11.45;39.91
55171;BME280;41060;47.510;8.680;2023-03-04T11:19:02;97463.09;;;11.53;40.29
55171;BME280;41060;47.510;8.680;2023-03-04T11:21:34;97458.28;;;11.46;39.66
55171;BME280;41060;47.510;8.680;2023-03-04T11:24:04;97456.13;;;11.63;39.69
55171;BME280;41060;47.510;8.680;2023-03-04T11:26:35;97459.59;;;11.41;40.03
55171;BME280;41060;47.510;8.680;2023-03-04T11:29:10;97445.97;;;11.45;39.44
55171;BME280;41060;47.510;8.680;2023-03-04T11:31:42;97451.91;;;11.49;39.91
55171;BME280;41060;47.510;8.680;2023-03-04T11:34:16;97383.44;;;11.32;39.69
55171;BME280;41060;47.510;8.680;2023-03-04T11:36:51;97443.97;;;11.94;39.26
55171;BME280;41060;47.510;8.680;2023-03-04T11:39:28;97443.81;;;11.73;39.78
55171;BME280;41060;47.510;8.680;2023-03-04T11:42:02;97443.94;;;11.71;40.11
55171;BME280;41060;47.510;8.680;2023-03-04T11:44:31;97437.19;;;11.45;40.16
55171;BME280;41060;47.510;8.680;2023-03-04T11:47:16;97445.13;;;11.67;40.04
55171;BME280;41060;47.510;8.680;2023-03-04T11:50:12;97435.00;;;12.06;39.65
55171;BME280;41060;47.510;8.680;2023-03-04T11:55:43;97424.31;;;12.71;38.51
55171;BME280;41060;47.510;8.680;2023-03-04T11:58:38;97427.16;;;12.79;37.87
55171;BME280;41060;47.510;8.680;2023-03-04T12:01:14;97418.56;;;12.55;37.37
55171;BME280;41060;47.510;8.680;2023-03-04T12:04:08;97411.41;;;12.67;37.33
55171;BME280;41060;47.510;8.680;2023-03-04T12:06:48;97412.16;;;12.25;37.77
55171;BME280;41060;47.510;8.680;2023-03-04T12:09:29;97406.44;;;12.41;37.39
55171;BME280;41060;47.510;8.680;2023-03-04T12:12:06;97413.28;;;12.12;36.97
55171;BME280;41060;47.510;8.680;2023-03-04T12:14:44;97401.66;;;12.56;36.48
55171;BME280;41060;47.510;8.680;2023-03-04T12:17:41;97400.88;;;12.97;36.20
55171;BME280;41060;47.510;8.680;2023-03-04T12:20:20;97403.13;;;13.22;36.01
55171;BME280;41060;47.510;8.680;2023-03-04T12:22:53;97391.13;;;13.58;35.29
55171;BME280;41060;47.510;8.680;2023-03-04T12:25:41;97382.13;;;13.80;34.63
55171;BME280;41060;47.510;8.680;2023-03-04T12:28:22;97379.66;;;14.07;34.70
55171;BME280;41060;47.510;8.680;2023-03-04T12:31:08;97374.69;;;14.33;33.60
55171;BME280;41060;47.510;8.680;2023-03-04T12:33:43;97357.56;;;14.55;33.31
55171;BME280;41060;47.510;8.680;2023-03-04T12:36:16;97367.41;;;14.83;32.25
55171;BME280;41060;47.510;8.680;2023-03-04T12:38:59;97373.84;;;14.71;32.26
55171;BME280;41060;47.510;8.680;2023-03-04T12:41:37;97367.25;;;14.56;32.78
55171;BME280;41060;47.510;8.680;2023-03-04T12:44:13;97364.44;;;14.86;32.27
55171;BME280;41060;47.510;8.680;2023-03-04T12:47:05;97363.13;;;15.10;32.29
55171;BME280;41060;47.510;8.680;2023-03-04T12:49:41;97354.06;;;15.40;32.06
55171;BME280;41060;47.510;8.680;2023-03-04T12:52:15;97348.66;;;15.59;31.66
55171;BME280;41060;47.510;8.680;2023-03-04T12:54:47;97349.00;;;15.73;31.05
55171;BME280;41060;47.510;8.680;2023-03-04T12:57:17;97345.94;;;15.41;29.96
55171;BME280;41060;47.510;8.680;2023-03-04T12:59:51;97342.72;;;14.52;31.73
55171;BME280;41060;47.510;8.680;2023-03-04T13:02:41;97337.06;;;14.07;32.92
55171;BME280;41060;47.510;8.680;2023-03-04T13:05:25;97298.47;;;13.73;33.53
55171;BME280;41060;47.510;8.680;2023-03-04T13:07:59;97330.66;;;14.29;32.76
55171;BME280;41060;47.510;8.680;2023-03-04T13:10:28;97284.66;;;14.17;32.26
55171;BME280;41060;47.510;8.680;2023-03-04T13:12:56;97322.38;;;14.61;32.55
55171;BME280;41060;47.510;8.680;2023-03-04T13:15:32;97320.28;;;14.45;31.77
55171;BME280;41060;47.510;8.680;2023-03-04T13:18:28;97320.44;;;14.15;32.24
55171;BME280;41060;47.510;8.680;2023-03-04T13:21:05;97313.81;;;14.67;32.08
55171;BME280;41060;47.510;8.680;2023-03-04T13:23:33;97311.13;;;14.77;31.51
55171;BME280;41060;47.510;8.680;2023-03-04T13:26:15;97306.81;;;15.22;31.43
55171;BME280;41060;47.510;8.680;2023-03-04T13:28:44;97303.44;;;15.57;29.73